Time;durP1;ratioP1;P1;durP2;ratioP2;P2;SDS_P1;SDS_P2;PMS_P1;PMS_P2;Temp;Humidity;BMP_temperature;BMP_pressure;BME280_temperature;BME280_humidity;BME280_pressure;Samples;Min_cycle;Max_cycle;Signal;HPM_P1;HPM_P2
2021/08/11 00:04:39;;;;;;;4.93;3.60;;;;;;;17.06;71.43;100707.01;5069748;58;21211;-81
2021/08/11 00:09:45;;;;;;;4.17;3.80;;;;;;;16.94;71.61;100697.08;5069822;58;21197;-82
2021/08/11 00:14:51;;;;;;;13.87;6.87;;;;;;;16.90;72.25;100701.05;5069892;58;21175;-81
2021/08/11 00:19:57;;;;;;;5.57;3.67;;;;;;;16.89;72.71;100688.68;5070012;58;21173;-81
2021/08/11 00:25:03;;;;;;;4.13;3.47;;;;;;;16.88;72.83;100690.51;5069894;58;21205;-80
2021/08/11 00:30:09;;;;;;;9.60;4.90;;;;;;;16.87;72.90;100687.49;5069784;58;21122;-82
2021/08/11 00:35:16;;;;;;;9.23;4.83;;;;;;;16.94;73.39;100666.84;5050650;58;21205;-83
2021/08/11 00:40:25;;;;;;;11.27;5.43;;;;;;;16.99;73.51;100669.38;5065509;57;21205;-81
2021/08/11 00:45:31;;;;;;;14.93;5.33;;;;;;;17.01;73.63;100680.75;5036775;57;21161;-83
2021/08/11 00:50:39;;;;;;;6.07;4.53;;;;;;;17.04;73.67;100678.27;5036417;59;21182;-82
2021/08/11 00:55:46;;;;;;;6.53;4.57;;;;;;;16.84;73.03;100686.95;5039311;59;21170;-81
2021/08/11 01:00:55;;;;;;;10.30;4.47;;;;;;;16.57;73.89;100699.05;5038536;57;21520;-81
2021/08/11 01:06:06;;;;;;;6.63;3.87;;;;;;;16.26;74.80;100695.92;5021884;58;21598;-82
2021/08/11 01:11:13;;;;;;;4.57;3.70;;;;;;;16.14;76.78;100705.98;4996604;59;21110;-81
2021/08/11 01:16:19;;;;;;;7.33;5.30;;;;;;;16.05;81.63;100710.36;4990869;59;21164;-83
2021/08/11 01:21:42;;;;;;;11.97;5.93;;;;;;;16.03;81.42;100702.19;4999334;59;21512;-81
2021/08/11 01:27:18;;;;;;;6.43;4.70;;;;;;;16.07;81.84;100718.22;4998350;59;21201;-82
2021/08/11 01:33:05;;;;;;;8.47;4.33;;;;;;;16.09;82.08;100708.25;4984782;59;21173;-82
2021/08/11 01:38:16;;;;;;;7.07;4.50;;;;;;;16.13;83.33;100717.14;4996073;59;21631;-81
2021/08/11 01:43:32;;;;;;;4.87;4.27;;;;;;;16.17;83.14;100711.02;4990150;59;21204;-81
2021/08/11 01:48:35;;;;;;;6.73;4.37;;;;;;;16.23;83.10;100713.56;4996606;59;21189;-83
2021/08/11 01:53:42;;;;;;;6.20;4.33;;;;;;;16.22;82.89;100705.20;4987577;59;21200;-82
2021/08/11 01:58:50;;;;;;;7.57;4.27;;;;;;;16.28;83.16;100708.13;4993533;59;21193;-84
2021/08/11 02:03:57;;;;;;;13.07;4.97;;;;;;;16.28;82.99;100708.63;4996646;59;21168;-83
2021/08/11 02:09:04;;;;;;;6.00;4.33;;;;;;;16.35;82.77;100693.66;5046635;57;21515;-82
2021/08/11 02:14:11;;;;;;;4.57;3.47;;;;;;;16.37;82.84;100707.20;5043724;58;21120;-82
2021/08/11 02:19:18;;;;;;;5.70;3.47;;;;;;;16.37;83.03;100715.71;5041144;58;21112;-81
2021/08/11 02:24:24;;;;;;;4.37;3.10;;;;;;;16.37;83.52;100711.70;5043169;58;21155;-81
2021/08/11 02:30:12;;;;;;;5.83;3.77;;;;;;;16.39;83.50;100727.92;5041102;59;21221;-83
2021/08/11 02:35:36;;;;;;;8.33;3.67;;;;;;;16.39;83.96;100727.08;5035246;57;21644;-82
2021/08/11 02:40:55;;;;;;;7.83;4.33;;;;;;;16.34;83.53;100725.37;5036358;58;21117;-80
2021/08/11 02:46:07;;;;;;;4.63;4.23;;;;;;;16.34;83.26;100724.05;5040095;58;21843;-82
2021/08/11 02:51:14;;;;;;;7.03;4.13;;;;;;;16.26;83.52;100728.78;5043954;57;21175;-81
2021/08/11 02:56:22;;;;;;;7.20;4.57;;;;;;;16.24;83.46;100719.25;5040008;58;21167;-84
2021/08/11 03:01:30;;;;;;;5.00;3.70;;;;;;;16.26;83.39;100722.61;5050239;57;21156;-81
2021/08/11 03:06:36;;;;;;;5.90;4.47;;;;;;;16.23;83.32;100721.57;5041899;57;21207;-82
2021/08/11 03:11:43;;;;;;;5.70;4.50;;;;;;;16.14;83.37;100739.33;5037799;58;21164;-82
2021/08/11 03:16:49;;;;;;;9.83;6.03;;;;;;;16.08;82.96;100743.42;5041456;57;21565;-81
2021/08/11 03:21:55;;;;;;;6.80;4.27;;;;;;;16.06;82.71;100746.73;5035655;58;21187;-83
2021/08/11 03:27:03;;;;;;;10.37;6.50;;;;;;;16.00;82.61;100750.02;5036683;58;21189;-82
2021/08/11 03:32:09;;;;;;;8.83;5.47;;;;;;;15.92;82.63;100751.23;5042169;58;21196;-80
2021/08/11 03:37:16;;;;;;;7.13;4.57;;;;;;;15.88;82.75;100754.36;5039860;57;21183;-83
2021/08/11 03:42:25;;;;;;;8.87;4.13;;;;;;;15.83;82.95;100749.45;5043487;57;22111;-82
2021/08/11 03:47:31;;;;;;;5.97;4.43;;;;;;;15.80;83.02;100753.75;5043001;58;21696;-80
2021/08/11 03:52:37;;;;;;;4.80;4.10;;;;;;;15.70;83.08;100749.80;5045138;57;21105;-83
2021/08/11 03:57:43;;;;;;;6.40;5.00;;;;;;;15.63;82.99;100762.02;5039762;58;21199;-81
2021/08/11 04:02:49;;;;;;;4.97;3.87;;;;;;;15.57;82.99;100762.62;5041378;58;21629;-81
2021/08/11 04:07:54;;;;;;;4.50;3.57;;;;;;;15.49;83.04;100770.45;5006976;58;21611;-84
2021/08/11 04:12:59;;;;;;;4.13;3.60;;;;;;;15.48;83.11;100781.61;5003612;57;21608;-83
2021/08/11 04:18:04;;;;;;;4.17;3.37;;;;;;;15.45;83.09;100775.22;5036494;58;21127;-81
2021/08/11 04:23:09;;;;;;;4.97;3.53;;;;;;;15.44;83.27;100782.02;5042921;59;21517;-85
2021/08/11 04:28:14;;;;;;;4.80;3.33;;;;;;;15.46;83.42;100787.57;5038811;58;21174;-83
2021/08/11 04:33:19;;;;;;;5.97;3.73;;;;;;;15.46;83.34;100788.90;5040825;59;21654;-82
2021/08/11 04:38:25;;;;;;;5.57;4.07;;;;;;;15.47;83.47;100789.25;5037493;58;21165;-83
2021/08/11 04:43:30;;;;;;;4.87;3.33;;;;;;;15.51;83.65;100791.64;5021896;58;21238;-81
2021/08/11 04:48:34;;;;;;;6.27;3.80;;;;;;;15.42;83.98;100797.34;5002990;58;21525;-81
2021/08/11 04:53:40;;;;;;;3.57;3.27;;;;;;;15.44;84.05;100803.35;5010421;59;21170;-81
2021/08/11 04:58:45;;;;;;;6.30;3.50;;;;;;;15.44;84.26;100804.69;5018847;58;21204;-81
2021/08/11 05:03:50;;;;;;;3.17;2.73;;;;;;;15.44;84.64;100802.02;5024716;58;21138;-82
2021/08/11 05:08:56;;;;;;;2.93;2.60;;;;;;;15.49;84.63;100809.95;4984733;58;21196;-82
2021/08/11 05:14:01;;;;;;;8.83;2.43;;;;;;;15.55;84.63;100815.23;5014844;58;21490;-81
2021/08/11 05:19:06;;;;;;;3.17;2.50;;;;;;;15.61;84.78;100815.14;5030647;58;21521;-84
2021/08/11 05:24:11;;;;;;;1.10;1.10;;;;;;;15.67;84.64;100818.57;5027733;57;21528;-86
2021/08/11 05:29:24;;;;;;;1.73;1.50;;;;;;;15.73;84.49;100826.00;5034401;59;21150;-83
2021/08/11 05:34:29;;;;;;;2.22;1.65;;;;;;;15.78;84.58;100824.56;5029368;58;21479;-84
2021/08/11 05:39:34;;;;;;;1.93;1.80;;;;;;;15.86;84.61;100825.19;5050579;58;22460;-82
2021/08/11 05:44:39;;;;;;;2.63;1.83;;;;;;;16.00;84.81;100832.72;5042038;58;21597;-83
2021/08/11 05:49:44;;;;;;;3.50;1.80;;;;;;;16.13;84.40;100837.72;5039012;58;21201;-83
2021/08/11 05:54:49;;;;;;;4.03;1.93;;;;;;;16.20;84.06;100836.13;5030972;58;21205;-82
2021/08/11 05:59:54;;;;;;;1.67;1.53;;;;;;;16.31;84.20;100838.62;5029004;58;21225;-81
2021/08/11 06:04:59;;;;;;;3.27;2.50;;;;;;;16.46;84.15;100842.48;5032269;58;21152;-84
2021/08/11 06:10:07;;;;;;;5.63;3.13;;;;;;;16.52;83.31;100839.69;5037628;58;21295;-82
2021/08/11 06:15:13;;;;;;;9.60;4.73;;;;;;;16.64;83.14;100845.22;5030609;58;21148;-82
2021/08/11 06:20:21;;;;;;;5.70;2.47;;;;;;;16.76;82.58;100852.02;5025868;57;21203;-82
2021/08/11 06:25:27;;;;;;;5.40;1.93;;;;;;;16.84;82.30;100851.25;5025863;57;21662;-82
2021/08/11 06:30:32;;;;;;;2.13;1.80;;;;;;;16.96;82.41;100860.72;5042723;58;21218;-81
2021/08/11 06:35:38;;;;;;;7.53;1.90;;;;;;;17.11;81.41;100862.40;4947873;58;21238;-81
2021/08/11 06:40:45;;;;;;;1.77;1.67;;;;;;;17.21;81.36;100861.81;4931539;58;21480;-82
2021/08/11 06:45:51;;;;;;;1.93;1.83;;;;;;;17.42;80.66;100857.46;5014833;58;21137;-84
2021/08/11 06:50:58;;;;;;;1.47;1.37;;;;;;;17.52;79.20;100852.38;5039483;59;22678;-85
2021/08/11 06:56:04;;;;;;;2.33;1.50;;;;;;;17.64;78.55;100862.36;4900082;60;21153;-84
2021/08/11 07:01:10;;;;;;;1.13;1.13;;;;;;;17.70;77.87;100868.44;5039314;59;22401;-86
2021/08/11 07:06:16;;;;;;;3.00;1.37;;;;;;;17.84;77.82;100867.02;4982690;59;21257;-86
2021/08/11 07:11:22;;;;;;;1.83;1.73;;;;;;;18.08;77.94;100872.50;5039524;59;21696;-81
2021/08/11 07:16:28;;;;;;;3.93;1.27;;;;;;;18.19;76.96;100883.42;5039883;59;21193;-82
2021/08/11 07:21:33;;;;;;;3.00;1.73;;;;;;;18.12;74.94;100879.73;5039110;59;21456;-81
2021/08/11 07:26:40;;;;;;;6.40;2.07;;;;;;;18.04;75.88;100883.67;5024382;58;21236;-82
2021/08/11 07:31:45;;;;;;;2.57;1.90;;;;;;;18.06;76.46;100879.01;5013582;59;21524;-83
2021/08/11 07:36:51;;;;;;;2.53;2.33;;;;;;;18.14;76.03;100883.92;5005839;59;21148;-82
2021/08/11 07:41:57;;;;;;;2.30;1.80;;;;;;;18.17;76.02;100880.94;5032573;58;21170;-82
2021/08/11 07:47:03;;;;;;;5.43;2.60;;;;;;;18.26;75.58;100883.98;5047188;59;21214;-81
2021/08/11 07:52:08;;;;;;;35.03;5.30;;;;;;;18.45;76.18;100889.60;5043913;59;22122;-82
2021/08/11 07:57:14;;;;;;;10.83;1.93;;;;;;;18.64;75.12;100889.05;4972554;59;21173;-82
2021/08/11 08:02:19;;;;;;;4.58;1.77;;;;;;;18.61;73.68;100896.40;4972364;59;21126;-82
2021/08/11 08:07:25;;;;;;;2.52;2.33;;;;;;;18.67;74.43;100888.70;5007232;59;21180;-83
2021/08/11 08:12:34;;;;;;;2.43;2.20;;;;;;;18.74;74.02;100887.90;5035332;59;21232;-82
2021/08/11 08:17:41;;;;;;;5.95;3.02;;;;;;;18.93;74.08;100888.13;5035394;59;21175;-83
2021/08/11 08:22:49;;;;;;;2.27;2.17;;;;;;;19.08;73.42;100881.12;5035834;59;21142;-82
2021/08/11 08:27:56;;;;;;;3.02;2.27;;;;;;;19.33;73.50;100879.29;5035269;59;21190;-86
2021/08/11 08:33:02;;;;;;;2.42;2.20;;;;;;;19.55;71.30;100875.14;5035359;59;21098;-82
2021/08/11 08:38:08;;;;;;;2.98;1.85;;;;;;;19.66;71.11;100879.66;5035341;59;21539;-81
2021/08/11 08:43:15;;;;;;;16.55;3.35;;;;;;;19.80;70.66;100874.61;5035501;58;21171;-82
2021/08/11 08:48:22;;;;;;;3.65;1.80;;;;;;;19.88;70.32;100871.89;5035433;58;21121;-82
2021/08/11 08:53:28;;;;;;;3.85;1.85;;;;;;;19.76;69.52;100876.78;5035183;59;21176;-82
2021/08/11 08:58:35;;;;;;;1.82;1.72;;;;;;;19.66;70.00;100878.81;5031537;59;21535;-82
2021/08/11 09:03:41;;;;;;;3.12;2.25;;;;;;;19.73;69.18;100881.64;5025042;59;21203;-82
2021/08/11 09:09:00;;;;;;;5.12;2.27;;;;;;;19.72;69.06;100878.63;4909269;59;21859;-83
2021/08/11 09:14:27;;;;;;;2.55;1.70;;;;;;;19.76;70.12;100881.31;4896720;58;21190;-82
2021/08/11 09:19:46;;;;;;;1.87;1.77;;;;;;;19.93;67.96;100887.84;4940526;59;21208;-82
2021/08/11 09:25:09;;;;;;;1.85;1.75;;;;;;;20.18;66.19;100894.48;4947251;60;21236;-78
2021/08/11 09:30:24;;;;;;;1.90;1.60;;;;;;;20.07;65.46;100891.66;4946796;60;21598;-82
2021/08/11 09:35:38;;;;;;;4.03;1.98;;;;;;;20.20;63.67;100888.44;4947633;60;21248;-81
2021/08/11 09:40:46;;;;;;;3.42;1.72;;;;;;;20.29;64.79;100896.31;4949725;58;21227;-80
2021/08/11 09:45:59;;;;;;;2.10;1.90;;;;;;;20.17;64.66;100898.17;4958915;59;21284;-82
2021/08/11 09:51:07;;;;;;;2.30;2.10;;;;;;;20.00;63.58;100894.22;4959104;59;21213;-83
2021/08/11 09:56:14;;;;;;;2.00;1.80;;;;;;;19.91;63.97;100897.06;4975997;58;21209;-81
2021/08/11 10:01:24;;;;;;;1.60;1.50;;;;;;;19.97;63.94;100905.79;5018650;59;21220;-83
2021/08/11 10:06:39;;;;;;;2.08;1.92;;;;;;;20.35;65.31;100903.66;5010889;58;21197;-84
2021/08/11 10:11:50;;;;;;;2.22;1.72;;;;;;;20.55;63.25;100904.14;4896968;60;21243;-82
2021/08/11 10:16:59;;;;;;;1.35;1.30;;;;;;;20.89;61.31;100886.33;4983162;59;21221;-82
2021/08/11 10:22:14;;;;;;;2.42;1.40;;;;;;;21.24;61.90;100890.31;4957613;59;21228;-81
2021/08/11 10:27:20;;;;;;;1.60;1.50;;;;;;;21.51;59.93;100894.84;4957554;59;21203;-80
2021/08/11 10:32:27;;;;;;;1.70;1.60;;;;;;;21.79;59.98;100893.24;4957620;59;21198;-81
2021/08/11 10:37:35;;;;;;;3.33;1.47;;;;;;;21.97;55.93;100902.34;4958053;59;21277;-82
2021/08/11 10:42:43;;;;;;;2.50;1.65;;;;;;;21.94;56.76;100904.87;4958186;58;21719;-82
2021/08/11 10:47:49;;;;;;;1.80;1.52;;;;;;;21.63;57.98;100914.92;4957620;59;22462;-82
2021/08/11 10:53:11;;;;;;;1.70;1.60;;;;;;;21.44;59.47;100926.17;4953777;59;21142;-85
2021/08/11 10:58:37;;;;;;;2.20;1.98;;;;;;;21.68;57.16;100909.84;4959477;59;21206;-82
2021/08/11 11:03:53;;;;;;;2.15;1.70;;;;;;;21.98;57.12;100908.89;4958563;59;21569;-81
2021/08/11 11:09:20;;;;;;;2.37;2.17;;;;;;;22.13;55.22;100912.98;5028011;59;21118;-81
2021/08/11 11:14:52;;;;;;;2.17;1.95;;;;;;;22.13;56.05;100916.18;5038839;59;21130;-82
2021/08/11 11:20:16;;;;;;;2.67;1.90;;;;;;;22.10;54.63;100913.34;5038780;59;21201;-81
2021/08/11 11:26:00;;;;;;;1.77;1.67;;;;;;;22.13;54.40;100914.33;5038665;58;21154;-82
2021/08/11 11:31:10;;;;;;;2.25;1.62;;;;;;;22.20;53.39;100923.32;5038823;59;21560;-81
2021/08/11 11:36:25;;;;;;;3.05;1.72;;;;;;;22.45;51.74;100920.70;5034596;59;21474;-81
2021/08/11 11:41:31;;;;;;;2.17;1.98;;;;;;;22.71;53.76;100920.20;5040029;58;21480;-82
2021/08/11 11:46:49;;;;;;;3.22;1.87;;;;;;;22.97;54.18;100908.92;5060974;58;21273;-82
2021/08/11 11:51:56;;;;;;;2.08;1.80;;;;;;;23.20;53.54;100909.28;5061128;58;21209;-82
2021/08/11 11:57:02;;;;;;;9.95;1.80;;;;;;;23.34;52.25;100907.04;5048355;58;21188;-81
2021/08/11 12:02:15;;;;;;;3.70;1.87;;;;;;;23.54;52.85;100910.77;5005108;58;21212;-82
2021/08/11 12:07:33;;;;;;;2.27;2.08;;;;;;;23.55;50.58;100908.91;5058809;58;22494;-82
2021/08/11 12:12:38;;;;;;;5.58;2.10;;;;;;;23.49;51.07;100903.76;5061419;58;21290;-82
2021/08/11 12:17:44;;;;;;;2.72;1.82;;;;;;;23.41;52.17;100906.57;5006830;58;21532;-82
2021/08/11 12:22:50;;;;;;;1.87;1.77;;;;;;;23.61;50.61;100907.63;5001869;59;21220;-81
2021/08/11 12:28:14;;;;;;;1.65;1.55;;;;;;;23.69;49.02;100896.67;5001343;59;22418;-79
2021/08/11 12:33:22;;;;;;;1.87;1.70;;;;;;;23.73;48.12;100895.26;5000949;58;21713;-80
2021/08/11 12:38:34;;;;;;;3.33;2.10;;;;;;;23.86;46.28;100906.68;4998858;58;21667;-81
2021/08/11 12:43:40;;;;;;;5.03;2.00;;;;;;;24.17;48.42;100907.63;5000123;58;21197;-80
2021/08/11 12:48:46;;;;;;;5.22;1.98;;;;;;;24.21;47.49;100908.91;5014589;58;21149;-82
2021/08/11 12:54:07;;;;;;;2.55;2.35;;;;;;;23.93;48.57;100910.28;4976063;59;21212;-81
2021/08/11 12:59:13;;;;;;;3.92;3.40;;;;;;;23.53;49.04;100914.50;5013315;58;21189;-80
2021/08/11 13:04:26;;;;;;;2.60;2.17;;;;;;;23.47;50.14;100907.16;5063534;58;21165;-80
2021/08/11 13:09:33;;;;;;;2.62;2.15;;;;;;;23.72;49.19;100903.55;5069383;58;21210;-79
2021/08/11 13:14:55;;;;;;;3.92;2.67;;;;;;;23.94;49.13;100907.06;5056048;58;22220;-79
2021/08/11 13:20:18;;;;;;;6.33;1.90;;;;;;;23.99;46.87;100908.13;5016709;58;21501;-80
2021/08/11 13:25:25;;;;;;;2.65;1.95;;;;;;;24.11;46.75;100911.97;5008143;58;21216;-80
2021/08/11 13:30:31;;;;;;;3.65;2.55;;;;;;;24.28;47.78;100914.41;5047939;58;21624;-80
2021/08/11 13:35:37;;;;;;;1.77;1.67;;;;;;;24.54;47.97;100905.91;5069497;58;21461;-81
2021/08/11 13:40:43;;;;;;;3.05;2.10;;;;;;;24.76;44.39;100912.02;5069290;58;21118;-80
2021/08/11 13:45:49;;;;;;;2.85;1.90;;;;;;;24.60;44.32;100909.66;5018098;57;21118;-81
2021/08/11 13:50:55;;;;;;;2.35;2.17;;;;;;;24.74;45.69;100910.06;5047057;59;21173;-81
2021/08/11 13:56:01;;;;;;;3.30;1.90;;;;;;;24.95;42.86;100916.39;5047194;59;21173;-81
2021/08/11 14:01:07;;;;;;;2.12;1.80;;;;;;;24.83;43.15;100928.30;5010859;58;21208;-81
2021/08/11 14:06:13;;;;;;;3.80;2.20;;;;;;;24.79;43.52;100927.86;5028474;59;21172;-81
2021/08/11 14:11:20;;;;;;;2.58;1.70;;;;;;;24.67;43.62;100925.41;5047272;59;21173;-80
2021/08/11 14:16:28;;;;;;;1.70;1.70;;;;;;;24.76;44.71;100917.44;5047310;59;21118;-81
2021/08/11 14:21:33;;;;;;;1.98;1.60;;;;;;;24.87;43.91;100926.86;5047753;58;21225;-81
2021/08/11 14:26:39;;;;;;;1.75;1.70;;;;;;;24.82;42.48;100916.63;5047906;59;21122;-80
2021/08/11 14:31:44;;;;;;;2.25;2.02;;;;;;;24.68;43.03;100920.84;5047905;58;21225;-81
2021/08/11 14:36:51;;;;;;;2.92;2.67;;;;;;;24.74;43.17;100917.34;5048312;58;21182;-81
2021/08/11 14:41:58;;;;;;;6.17;2.12;;;;;;;24.73;42.78;100921.08;5048137;59;21107;-81
2021/08/11 14:47:04;;;;;;;5.08;2.67;;;;;;;24.81;43.36;100923.59;5039198;59;21178;-81
2021/08/11 14:52:10;;;;;;;5.47;2.83;;;;;;;24.77;41.75;100927.73;5036108;59;21239;-78
2021/08/11 14:57:18;;;;;;;3.35;2.92;;;;;;;24.72;43.05;100929.72;5036216;59;21141;-80
2021/08/11 15:02:24;;;;;;;3.60;2.40;;;;;;;24.81;43.45;100924.95;5035971;59;21524;-78
2021/08/11 15:07:31;;;;;;;3.02;2.80;;;;;;;24.85;41.49;100926.23;5006663;59;21168;-79
2021/08/11 15:12:36;;;;;;;6.47;2.45;;;;;;;24.94;43.18;100925.55;4984335;59;21176;-78
2021/08/11 15:17:42;;;;;;;4.45;3.47;;;;;;;25.02;43.08;100926.73;4984223;59;21224;-78
2021/08/11 15:22:48;;;;;;;3.05;2.83;;;;;;;25.00;43.44;100926.94;4984142;59;21161;-78
2021/08/11 15:27:54;;;;;;;3.58;2.90;;;;;;;24.94;43.85;100922.33;4984195;59;21233;-78
2021/08/11 15:33:00;;;;;;;2.67;2.50;;;;;;;25.08;43.89;100915.91;4984153;59;21172;-78
2021/08/11 15:38:05;;;;;;;3.70;2.12;;;;;;;25.15;43.94;100920.84;4983992;59;21500;-79
2021/08/11 15:43:11;;;;;;;2.92;2.67;;;;;;;25.27;41.80;100927.00;4984148;59;21189;-81
2021/08/11 15:48:16;;;;;;;8.13;2.33;;;;;;;25.18;41.93;100918.25;4983971;58;21106;-79
2021/08/11 15:53:22;;;;;;;2.27;2.17;;;;;;;25.14;42.11;100935.41;4984070;59;22140;-79
2021/08/11 15:58:28;;;;;;;3.95;2.15;;;;;;;24.99;41.77;100932.03;4983902;59;21177;-81
2021/08/11 16:03:34;;;;;;;3.50;1.55;;;;;;;24.99;41.97;100938.80;4965587;59;21212;-81
2021/08/11 16:08:40;;;;;;;1.82;1.72;;;;;;;24.94;40.45;100930.44;5007591;58;21828;-78
2021/08/11 16:13:46;;;;;;;28.65;25.45;;;;;;;24.89;41.36;100940.51;5019143;58;21195;-81
2021/08/11 16:18:52;;;;;;;3.02;2.72;;;;;;;24.89;40.99;100931.04;5077552;58;21115;-79
2021/08/11 16:23:58;;;;;;;5.67;1.95;;;;;;;24.77;40.80;100945.31;5077264;58;21158;-81
2021/08/11 16:29:04;;;;;;;3.70;1.60;;;;;;;24.71;40.78;100945.63;5077249;58;21107;-81
2021/08/11 16:34:09;;;;;;;7.85;2.02;;;;;;;24.69;40.48;100943.64;5077399;58;21203;-78
2021/08/11 16:39:15;;;;;;;2.83;1.80;;;;;;;24.56;40.81;100947.62;5077324;58;21210;-77
2021/08/11 16:44:21;;;;;;;1.75;1.32;;;;;;;24.49;40.13;100948.09;5077287;58;21165;-81
2021/08/11 16:49:26;;;;;;;2.40;1.90;;;;;;;24.36;40.45;100951.56;5077337;57;21612;-82
2021/08/11 16:54:32;;;;;;;1.80;1.57;;;;;;;24.26;40.67;100952.95;5077314;58;21639;-79
2021/08/11 16:59:38;;;;;;;3.10;2.27;;;;;;;24.10;41.30;100946.78;5065089;58;21177;-78
2021/08/11 17:04:45;;;;;;;3.62;2.83;;;;;;;24.03;41.73;100949.11;5035465;59;21178;-82
2021/08/11 17:09:51;;;;;;;4.37;2.75;;;;;;;23.93;42.47;100947.27;5035597;59;21095;-79
2021/08/11 17:14:58;;;;;;;3.15;2.83;;;;;;;23.82;43.38;100961.64;5035539;59;21298;-82
2021/08/11 17:20:07;;;;;;;3.40;2.25;;;;;;;23.70;43.57;100967.73;5035431;59;21166;-79
2021/08/11 17:25:13;;;;;;;2.90;2.70;;;;;;;23.47;44.24;100973.30;5035493;59;21166;-80
2021/08/11 17:30:19;;;;;;;3.37;2.17;;;;;;;23.24;45.08;100976.67;5035682;59;21564;-80
2021/08/11 17:35:25;;;;;;;2.58;2.37;;;;;;;23.08;46.25;100985.83;5035600;59;21157;-80
2021/08/11 17:40:31;;;;;;;2.65;2.45;;;;;;;22.94;46.83;100985.34;5035455;59;21193;-83
2021/08/11 17:45:37;;;;;;;3.20;2.58;;;;;;;22.85;47.13;100987.83;5035517;57;21173;-81
2021/08/11 17:50:43;;;;;;;3.08;2.77;;;;;;;22.77;47.67;100996.83;5035519;59;21166;-81
2021/08/11 17:55:49;;;;;;;10.65;2.95;;;;;;;22.62;48.01;100999.50;5035912;59;21438;-83
2021/08/11 18:00:55;;;;;;;25.75;14.68;;;;;;;22.54;48.45;101005.00;5036116;59;21103;-79
2021/08/11 18:06:02;;;;;;;94.85;74.42;;;;;;;22.44;48.76;101012.02;5036145;59;21603;-80
2021/08/11 18:11:07;;;;;;;323.00;161.80;;;;;;;22.34;49.12;101007.38;5036173;59;21197;-84
2021/08/11 18:16:14;;;;;;;44.27;31.02;;;;;;;22.25;49.31;101010.36;5036387;59;21189;-80
2021/08/11 18:21:19;;;;;;;98.33;51.10;;;;;;;22.18;49.93;101015.63;5036383;59;21186;-83
2021/08/11 18:26:25;;;;;;;236.15;131.45;;;;;;;21.99;50.68;101022.38;5036312;59;21103;-80
2021/08/11 18:31:30;;;;;;;140.00;79.37;;;;;;;21.81;50.98;101032.58;5036060;59;21144;-81
2021/08/11 18:36:37;;;;;;;36.42;20.35;;;;;;;21.83;51.81;101031.05;5036080;59;21187;-83
2021/08/11 18:41:43;;;;;;;9.33;4.87;;;;;;;21.88;52.23;101040.25;5018388;58;21127;-81
2021/08/11 18:46:49;;;;;;;11.57;3.77;;;;;;;21.89;52.83;101043.28;4990050;57;43250;-81
2021/08/11 18:51:56;;;;;;;7.05;3.87;;;;;;;21.80;52.96;101048.41;5022696;58;26687;-80
2021/08/11 18:57:02;;;;;;;10.58;5.78;;;;;;;21.71;53.28;101049.45;5056682;55;25454;-80
2021/08/11 19:02:09;;;;;;;13.28;6.35;;;;;;;21.76;53.92;101057.85;5086079;58;21154;-81
2021/08/11 19:07:14;;;;;;;22.27;8.03;;;;;;;21.81;54.19;101061.36;5079072;58;21193;-79
2021/08/11 19:12:20;;;;;;;21.20;10.65;;;;;;;21.76;54.46;101072.66;5075473;57;21151;-81
2021/08/11 19:17:28;;;;;;;35.17;8.20;;;;;;;21.67;54.69;101074.58;5089473;58;21142;-81
2021/08/11 19:22:36;;;;;;;39.45;7.28;;;;;;;21.62;54.65;101075.61;5099297;58;21966;-81
2021/08/11 19:27:42;;;;;;;16.73;8.00;;;;;;;21.62;54.79;101080.16;5031394;59;21167;-80
2021/08/11 19:32:49;;;;;;;14.63;6.00;;;;;;;21.62;54.67;101087.72;5031613;59;21103;-79
2021/08/11 19:37:55;;;;;;;33.92;21.12;;;;;;;21.50;54.48;101091.83;5031704;59;21111;-76
2021/08/11 19:43:01;;;;;;;35.73;16.93;;;;;;;21.37;55.17;101094.25;5031583;59;21209;-79
2021/08/11 19:48:07;;;;;;;23.70;14.55;;;;;;;21.31;56.23;101090.40;5060357;57;21193;-80
2021/08/11 19:53:13;;;;;;;31.27;16.07;;;;;;;21.12;56.22;101095.31;5117744;57;21138;-83
2021/08/11 19:58:19;;;;;;;19.20;10.50;;;;;;;20.83;56.08;101101.28;5153515;57;21161;-82
2021/08/11 20:03:25;;;;;;;34.92;15.78;;;;;;;20.65;56.47;101105.00;5085179;57;21168;-80
2021/08/11 20:08:32;;;;;;;27.20;13.80;;;;;;;20.57;57.10;101110.91;5133909;57;21250;-83
2021/08/11 20:13:38;;;;;;;30.48;15.58;;;;;;;20.52;57.36;101118.63;5153786;57;21103;-78
2021/08/11 20:18:44;;;;;;;33.53;18.45;;;;;;;20.46;57.59;101129.56;5068703;57;27866;-77
2021/08/11 20:23:50;;;;;;;39.85;20.70;;;;;;;20.30;57.50;101120.96;5071784;58;21171;-79
2021/08/11 20:28:55;;;;;;;27.27;13.60;;;;;;;20.25;58.10;101123.30;5068342;58;21164;-80
2021/08/11 20:34:01;;;;;;;21.75;11.05;;;;;;;20.21;58.75;101125.13;5068862;58;21252;-81
2021/08/11 20:39:07;;;;;;;17.48;11.55;;;;;;;20.00;58.55;101140.40;5074798;58;21627;-82
2021/08/11 20:44:13;;;;;;;33.65;13.83;;;;;;;19.84;58.83;101143.05;5068328;58;21283;-82
2021/08/11 20:49:18;;;;;;;27.55;10.53;;;;;;;19.68;59.27;101145.68;5057189;58;22356;-81
2021/08/11 20:54:25;;;;;;;41.10;18.17;;;;;;;19.70;60.03;101150.39;5038366;59;21193;-80
2021/08/11 20:59:31;;;;;;;39.10;12.95;;;;;;;19.75;60.48;101152.91;4997239;59;21524;-79
2021/08/11 21:04:36;;;;;;;19.02;7.30;;;;;;;19.75;60.99;101157.43;4972404;59;21178;-82
2021/08/11 21:09:42;;;;;;;16.62;6.40;;;;;;;19.74;60.63;101156.59;5028616;59;21201;-82
2021/08/11 21:14:48;;;;;;;7.70;4.15;;;;;;;19.80;61.08;101148.39;5046034;58;21148;-83
2021/08/11 21:19:53;;;;;;;11.57;4.37;;;;;;;19.65;61.24;101154.39;5045644;59;21140;-78
2021/08/11 21:24:59;;;;;;;13.05;6.15;;;;;;;19.54;61.52;101160.56;5045632;59;21148;-82
2021/08/11 21:30:06;;;;;;;10.28;5.90;;;;;;;19.35;61.89;101166.97;5045251;59;21085;-82
2021/08/11 21:35:12;;;;;;;6.15;4.25;;;;;;;19.37;62.58;101170.84;5046156;59;21160;-83
2021/08/11 21:40:17;;;;;;;8.55;3.83;;;;;;;19.32;62.55;101172.15;5046340;59;21152;-83
2021/08/11 21:45:23;;;;;;;12.88;5.33;;;;;;;19.12;62.38;101181.41;5046302;59;21543;-81
2021/08/11 21:50:29;;;;;;;15.15;7.65;;;;;;;19.01;62.87;101176.81;5046341;59;21180;-79
2021/08/11 21:55:34;;;;;;;12.82;5.42;;;;;;;19.02;63.48;101183.37;5046325;58;21152;-82
2021/08/11 22:00:41;;;;;;;12.70;5.12;;;;;;;19.07;63.50;101183.75;5046234;59;21140;-83
2021/08/11 22:05:47;;;;;;;8.40;5.05;;;;;;;19.11;63.59;101178.88;5045317;59;21136;-79
2021/08/11 22:10:53;;;;;;;12.00;6.95;;;;;;;19.05;63.25;101177.70;5041859;59;21570;-80
2021/08/11 22:15:58;;;;;;;17.85;8.15;;;;;;;19.02;63.27;101180.69;5041873;59;21094;-80
2021/08/11 22:21:05;;;;;;;12.25;6.50;;;;;;;18.95;63.12;101183.14;5041899;59;21201;-81
2021/08/11 22:26:12;;;;;;;11.48;6.85;;;;;;;18.90;63.25;101187.31;5041817;59;21278;-82
2021/08/11 22:31:18;;;;;;;10.18;5.58;;;;;;;18.83;63.05;101188.42;5041863;59;21602;-79
2021/08/11 22:36:23;;;;;;;13.22;7.10;;;;;;;18.77;63.27;101188.22;5041748;59;21563;-80
2021/08/11 22:41:29;;;;;;;16.32;7.60;;;;;;;18.63;63.05;101190.95;5042058;59;21184;-81
2021/08/11 22:46:34;;;;;;;7.45;5.08;;;;;;;18.54;63.49;101192.67;5042207;58;22152;-81
2021/08/11 22:51:40;;;;;;;6.17;3.92;;;;;;;18.48;63.73;101195.15;5008734;59;21255;-86
2021/08/11 22:56:46;;;;;;;11.28;4.47;;;;;;;18.42;63.89;101195.25;4969881;58;21207;-82
2021/08/11 23:01:52;;;;;;;8.25;3.58;;;;;;;18.42;64.20;101191.73;4980380;59;21172;-79
2021/08/11 23:07:00;;;;;;;3.90;3.52;;;;;;;18.13;63.90;101202.66;4976073;59;21152;-81
2021/08/11 23:12:06;;;;;;;6.67;5.10;;;;;;;17.78;64.35;101198.91;4976872;59;21168;-80
2021/08/11 23:17:12;;;;;;;8.30;5.53;;;;;;;17.77;65.44;101198.56;4976554;59;21435;-82
2021/08/11 23:22:18;;;;;;;7.97;4.83;;;;;;;17.80;65.59;101195.59;4975155;59;21558;-81
2021/08/11 23:27:24;;;;;;;11.73;5.83;;;;;;;17.70;65.42;101193.97;4974004;58;21803;-82
2021/08/11 23:32:29;;;;;;;9.78;4.55;;;;;;;17.64;65.80;101202.58;4974326;59;21176;-80
2021/08/11 23:37:35;;;;;;;8.47;5.17;;;;;;;17.68;66.06;101196.80;4957882;59;21117;-80
2021/08/11 23:42:41;;;;;;;7.10;4.95;;;;;;;17.77;66.12;101209.77;4974563;59;21120;-83
2021/08/11 23:47:46;;;;;;;5.30;4.03;;;;;;;17.80;65.92;101202.78;4976260;58;21248;-78